sensor_id;sensor_type;location;lat;lon;timestamp;pressure;altitude;pressure_sealevel;temperature;humidity
20062;BME280;10191;42.710;23.310;2022-09-09T00:03:34;95193.59;;;26.27;34.07
20062;BME280;10191;42.710;23.310;2022-09-09T00:11:34;95179.91;;;26.11;34.17
20062;BME280;10191;42.710;23.310;2022-09-09T00:14:03;95194.25;;;26.02;34.22
20062;BME280;10191;42.710;23.310;2022-09-09T00:16:37;95181.63;;;25.88;34.28
20062;BME280;10191;42.710;23.310;2022-09-09T00:21:39;95177.25;;;25.73;34.60
20062;BME280;10191;42.710;23.310;2022-09-09T00:24:32;95171.28;;;25.71;34.49
20062;BME280;10191;42.710;23.310;2022-09-09T00:27:06;95162.44;;;25.69;34.43
20062;BME280;10191;42.710;23.310;2022-09-09T00:29:47;95160.50;;;25.60;34.63
20062;BME280;10191;42.710;23.310;2022-09-09T00:32:19;95155.25;;;25.53;34.62
20062;BME280;10191;42.710;23.310;2022-09-09T00:34:55;95162.78;;;25.56;34.77
20062;BME280;10191;42.710;23.310;2022-09-09T00:37:23;95154.53;;;25.58;34.84
20062;BME280;10191;42.710;23.310;2022-09-09T00:39:51;95150.31;;;25.53;34.74
20062;BME280;10191;42.710;23.310;2022-09-09T00:42:26;95139.16;;;25.50;34.72
20062;BME280;10191;42.710;23.310;2022-09-09T00:47:52;95140.06;;;25.41;34.84
20062;BME280;10191;42.710;23.310;2022-09-09T00:50:43;95155.34;;;25.44;34.85
20062;BME280;10191;42.710;23.310;2022-09-09T00:56:20;95148.19;;;25.34;35.08
20062;BME280;10191;42.710;23.310;2022-09-09T00:59:16;95148.78;;;25.23;34.95
20062;BME280;10191;42.710;23.310;2022-09-09T01:01:40;95146.84;;;25.15;35.08
20062;BME280;10191;42.710;23.310;2022-09-09T01:04:13;95146.03;;;25.14;34.83
20062;BME280;10191;42.710;23.310;2022-09-09T01:06:43;95142.03;;;25.06;35.01
20062;BME280;10191;42.710;23.310;2022-09-09T01:09:34;95156.84;;;25.10;35.04
20062;BME280;10191;42.710;23.310;2022-09-09T01:15:08;95132.34;;;24.98;35.03
20062;BME280;10191;42.710;23.310;2022-09-09T01:28:12;95147.22;;;24.93;35.17
20062;BME280;10191;42.710;23.310;2022-09-09T01:30:41;95147.91;;;24.88;35.09
20062;BME280;10191;42.710;23.310;2022-09-09T01:33:13;95145.56;;;24.87;35.19
20062;BME280;10191;42.710;23.310;2022-09-09T01:36:06;95156.03;;;24.95;35.33
20062;BME280;10191;42.710;23.310;2022-09-09T01:38:33;95156.34;;;24.97;35.28
20062;BME280;10191;42.710;23.310;2022-09-09T01:41:00;95171.81;;;24.96;35.32
20062;BME280;10191;42.710;23.310;2022-09-09T01:43:26;95168.19;;;24.96;35.46
20062;BME280;10191;42.710;23.310;2022-09-09T01:45:56;95158.88;;;24.95;35.41
20062;BME280;10191;42.710;23.310;2022-09-09T01:48:24;95156.03;;;24.95;35.47
20062;BME280;10191;42.710;23.310;2022-09-09T01:50:50;95159.47;;;24.99;35.60
20062;BME280;10191;42.710;23.310;2022-09-09T01:53:17;95178.09;;;25.00;35.52
20062;BME280;10191;42.710;23.310;2022-09-09T01:58:47;95177.00;;;24.83;35.51
20062;BME280;10191;42.710;23.310;2022-09-09T02:01:35;95173.09;;;24.81;35.52
20062;BME280;10191;42.710;23.310;2022-09-09T02:04:23;95160.38;;;24.67;35.51
20062;BME280;10191;42.710;23.310;2022-09-09T02:06:55;95166.56;;;24.65;35.73
20062;BME280;10191;42.710;23.310;2022-09-09T02:09:24;95167.72;;;24.59;35.69
20062;BME280;10191;42.710;23.310;2022-09-09T02:12:16;95160.50;;;24.58;35.83
20062;BME280;10191;42.710;23.310;2022-09-09T02:14:42;95145.50;;;24.57;35.99
20062;BME280;10191;42.710;23.310;2022-09-09T02:17:14;95153.59;;;24.50;35.98
20062;BME280;10191;42.710;23.310;2022-09-09T02:19:49;95150.75;;;24.50;36.12
20062;BME280;10191;42.710;23.310;2022-09-09T02:22:19;95147.25;;;24.55;35.99
20062;BME280;10191;42.710;23.310;2022-09-09T02:24:47;95141.00;;;24.51;35.93
20062;BME280;10191;42.710;23.310;2022-09-09T02:27:17;95150.69;;;24.59;35.80
20062;BME280;10191;42.710;23.310;2022-09-09T02:29:44;95162.41;;;24.52;36.00
20062;BME280;10191;42.710;23.310;2022-09-09T02:32:17;95160.44;;;24.43;36.01
20062;BME280;10191;42.710;23.310;2022-09-09T02:34:53;95161.59;;;24.37;36.22
20062;BME280;10191;42.710;23.310;2022-09-09T02:37:24;95159.38;;;24.41;36.35
20062;BME280;10191;42.710;23.310;2022-09-09T02:39:54;95178.88;;;24.48;36.35
20062;BME280;10191;42.710;23.310;2022-09-09T02:42:19;95170.94;;;24.52;36.28
20062;BME280;10191;42.710;23.310;2022-09-09T02:44:45;95153.41;;;24.39;36.22
20062;BME280;10191;42.710;23.310;2022-09-09T02:50:10;95179.75;;;24.54;36.22
20062;BME280;10191;42.710;23.310;2022-09-09T02:55:29;95169.25;;;24.45;36.44
20062;BME280;10191;42.710;23.310;2022-09-09T02:58:04;95172.72;;;24.49;36.12
20062;BME280;10191;42.710;23.310;2022-09-09T03:00:31;95174.47;;;24.47;36.30
20062;BME280;10191;42.710;23.310;2022-09-09T03:02:58;95178.56;;;24.46;36.38
20062;BME280;10191;42.710;23.310;2022-09-09T03:05:23;95177.66;;;24.40;36.40
20062;BME280;10191;42.710;23.310;2022-09-09T03:07:49;95177.72;;;24.31;36.44
20062;BME280;10191;42.710;23.310;2022-09-09T03:10:16;95174.13;;;24.30;36.59
20062;BME280;10191;42.710;23.310;2022-09-09T03:12:42;95176.47;;;24.32;36.37
20062;BME280;10191;42.710;23.310;2022-09-09T03:15:08;95174.91;;;24.31;36.62
20062;BME280;10191;42.710;23.310;2022-09-09T03:17:35;95179.31;;;24.32;36.62
20062;BME280;10191;42.710;23.310;2022-09-09T03:20:02;95175.19;;;24.33;36.40
20062;BME280;10191;42.710;23.310;2022-09-09T03:22:27;95174.59;;;24.29;36.52
20062;BME280;10191;42.710;23.310;2022-09-09T03:24:53;95168.91;;;24.29;36.69
20062;BME280;10191;42.710;23.310;2022-09-09T03:27:18;95150.22;;;24.22;36.71
20062;BME280;10191;42.710;23.310;2022-09-09T03:29:45;95178.41;;;24.26;36.60
20062;BME280;10191;42.710;23.310;2022-09-09T03:32:11;95166.47;;;24.22;36.62
20062;BME280;10191;42.710;23.310;2022-09-09T03:34:37;95174.00;;;24.25;36.50
20062;BME280;10191;42.710;23.310;2022-09-09T03:37:06;95167.13;;;24.17;36.71
20062;BME280;10191;42.710;23.310;2022-09-09T03:39:31;95169.66;;;24.15;36.81
20062;BME280;10191;42.710;23.310;2022-09-09T03:41:57;95167.44;;;24.19;36.78
20062;BME280;10191;42.710;23.310;2022-09-09T03:44:22;95165.97;;;24.23;36.66
20062;BME280;10191;42.710;23.310;2022-09-09T03:46:48;95163.63;;;24.22;36.65
20062;BME280;10191;42.710;23.310;2022-09-09T03:49:13;95175.38;;;24.29;36.59
20062;BME280;10191;42.710;23.310;2022-09-09T03:51:40;95176.53;;;24.23;36.62
20062;BME280;10191;42.710;23.310;2022-09-09T03:54:06;95170.56;;;24.21;36.75
20062;BME280;10191;42.710;23.310;2022-09-09T03:56:34;95169.13;;;24.25;36.63
20062;BME280;10191;42.710;23.310;2022-09-09T03:58:59;95178.88;;;24.24;36.57
20062;BME280;10191;42.710;23.310;2022-09-09T04:01:25;95186.25;;;24.31;36.85
20062;BME280;10191;42.710;23.310;2022-09-09T04:03:51;95185.50;;;24.30;36.83
20062;BME280;10191;42.710;23.310;2022-09-09T04:06:17;95181.44;;;24.22;36.65
20062;BME280;10191;42.710;23.310;2022-09-09T04:08:43;95179.31;;;24.08;36.77
20062;BME280;10191;42.710;23.310;2022-09-09T04:11:09;95188.03;;;24.05;36.70
20062;BME280;10191;42.710;23.310;2022-09-09T04:13:36;95188.03;;;24.05;36.74
20062;BME280;10191;42.710;23.310;2022-09-09T04:16:05;95168.16;;;24.05;36.89
20062;BME280;10191;42.710;23.310;2022-09-09T04:18:32;95161.88;;;24.00;36.79
20062;BME280;10191;42.710;23.310;2022-09-09T04:20:57;95178.38;;;24.11;36.88
20062;BME280;10191;42.710;23.310;2022-09-09T04:23:24;95174.69;;;24.20;37.03
20062;BME280;10191;42.710;23.310;2022-09-09T04:25:54;95174.25;;;24.36;37.22
20062;BME280;10191;42.710;23.310;2022-09-09T04:28:22;95164.88;;;24.44;36.95
20062;BME280;10191;42.710;23.310;2022-09-09T04:30:48;95189.88;;;24.69;36.88
20062;BME280;10191;42.710;23.310;2022-09-09T04:33:14;95185.91;;;24.76;36.88
20062;BME280;10191;42.710;23.310;2022-09-09T04:35:49;95178.31;;;24.73;37.09
20062;BME280;10191;42.710;23.310;2022-09-09T04:38:16;95182.16;;;24.70;36.96
20062;BME280;10191;42.710;23.310;2022-09-09T04:40:50;95182.56;;;24.77;37.03
20062;BME280;10191;42.710;23.310;2022-09-09T04:43:17;95181.13;;;24.82;36.97
20062;BME280;10191;42.710;23.310;2022-09-09T04:45:47;95178.56;;;24.84;36.71
20062;BME280;10191;42.710;23.310;2022-09-09T04:48:13;95179.94;;;24.89;37.06
20062;BME280;10191;42.710;23.310;2022-09-09T04:50:38;95176.31;;;24.88;36.93
20062;BME280;10191;42.710;23.310;2022-09-09T04:53:06;95176.22;;;24.97;36.92
20062;BME280;10191;42.710;23.310;2022-09-09T04:55:33;95169.88;;;25.02;36.55
20062;BME280;10191;42.710;23.310;2022-09-09T04:58:07;95160.06;;;25.03;36.71
20062;BME280;10191;42.710;23.310;2022-09-09T05:00:34;95160.25;;;25.00;36.83
20062;BME280;10191;42.710;23.310;2022-09-09T05:03:05;95176.22;;;25.12;36.82
20062;BME280;10191;42.710;23.310;2022-09-09T05:05:31;95166.72;;;25.15;36.95
20062;BME280;10191;42.710;23.310;2022-09-09T05:08:07;95170.34;;;25.30;36.65
20062;BME280;10191;42.710;23.310;2022-09-09T05:10:36;95151.13;;;25.39;36.69
20062;BME280;10191;42.710;23.310;2022-09-09T05:13:01;95148.88;;;25.43;36.69
20062;BME280;10191;42.710;23.310;2022-09-09T05:15:27;95166.34;;;25.51;36.65
20062;BME280;10191;42.710;23.310;2022-09-09T05:17:59;95165.63;;;25.56;36.74
20062;BME280;10191;42.710;23.310;2022-09-09T05:20:26;95159.34;;;25.52;36.57
20062;BME280;10191;42.710;23.310;2022-09-09T05:22:53;95157.31;;;25.52;36.57
20062;BME280;10191;42.710;23.310;2022-09-09T05:25:19;95163.00;;;25.52;36.61
20062;BME280;10191;42.710;23.310;2022-09-09T05:27:44;95147.75;;;25.55;36.52
20062;BME280;10191;42.710;23.310;2022-09-09T05:30:10;95159.81;;;25.65;36.65
20062;BME280;10191;42.710;23.310;2022-09-09T05:32:36;95158.44;;;25.61;36.36
20062;BME280;10191;42.710;23.310;2022-09-09T05:35:02;95158.06;;;25.68;36.70
20062;BME280;10191;42.710;23.310;2022-09-09T05:37:27;95167.53;;;25.79;36.61
20062;BME280;10191;42.710;23.310;2022-09-09T05:39:53;95159.84;;;25.85;36.38
20062;BME280;10191;42.710;23.310;2022-09-09T05:42:18;95170.03;;;25.92;36.52
20062;BME280;10191;42.710;23.310;2022-09-09T05:44:44;95172.75;;;26.01;36.42
20062;BME280;10191;42.710;23.310;2022-09-09T05:47:10;95167.13;;;26.06;36.44
20062;BME280;10191;42.710;23.310;2022-09-09T05:49:35;95161.66;;;26.03;36.43
20062;BME280;10191;42.710;23.310;2022-09-09T05:52:02;95166.97;;;26.10;36.30
20062;BME280;10191;42.710;23.310;2022-09-09T05:54:29;95170.66;;;26.16;36.30
20062;BME280;10191;42.710;23.310;2022-09-09T05:56:55;95177.50;;;26.24;36.54
20062;BME280;10191;42.710;23.310;2022-09-09T05:59:21;95168.53;;;26.31;36.65
20062;BME280;10191;42.710;23.310;2022-09-09T06:01:48;95173.16;;;26.49;36.36
20062;BME280;10191;42.710;23.310;2022-09-09T06:04:13;95185.69;;;26.57;36.57
20062;BME280;10191;42.710;23.310;2022-09-09T06:06:39;95183.63;;;26.57;36.49
20062;BME280;10191;42.710;23.310;2022-09-09T06:09:07;95179.50;;;26.58;36.74
20062;BME280;10191;42.710;23.310;2022-09-09T06:11:36;95174.59;;;26.59;36.53
20062;BME280;10191;42.710;23.310;2022-09-09T06:14:02;95172.34;;;26.68;36.83
20062;BME280;10191;42.710;23.310;2022-09-09T06:16:29;95169.16;;;26.81;36.44
20062;BME280;10191;42.710;23.310;2022-09-09T06:18:56;95176.59;;;26.98;36.43
20062;BME280;10191;42.710;23.310;2022-09-09T06:21:23;95171.28;;;27.12;36.50
20062;BME280;10191;42.710;23.310;2022-09-09T06:23:50;95188.00;;;27.24;36.24
20062;BME280;10191;42.710;23.310;2022-09-09T06:26:24;95176.72;;;27.35;35.90
20062;BME280;10191;42.710;23.310;2022-09-09T06:28:53;95189.69;;;27.36;36.26
20062;BME280;10191;42.710;23.310;2022-09-09T06:31:23;95191.41;;;27.54;36.23
20062;BME280;10191;42.710;23.310;2022-09-09T06:33:50;95184.50;;;27.66;35.96
20062;BME280;10191;42.710;23.310;2022-09-09T06:36:21;95180.97;;;28.13;35.70
20062;BME280;10191;42.710;23.310;2022-09-09T06:38:48;95176.56;;;28.66;35.60
20062;BME280;10191;42.710;23.310;2022-09-09T06:41:16;95175.59;;;28.85;35.22
20062;BME280;10191;42.710;23.310;2022-09-09T06:43:42;95165.84;;;29.19;35.48
20062;BME280;10191;42.710;23.310;2022-09-09T06:46:22;95161.44;;;29.90;34.94
20062;BME280;10191;42.710;23.310;2022-09-09T06:48:48;95163.00;;;29.91;35.24
20062;BME280;10191;42.710;23.310;2022-09-09T06:53:40;95181.53;;;30.92;34.80
20062;BME280;10191;42.710;23.310;2022-09-09T06:58:41;95194.81;;;31.77;34.02
20062;BME280;10191;42.710;23.310;2022-09-09T07:01:10;95190.13;;;31.33;33.73
20062;BME280;10191;42.710;23.310;2022-09-09T07:03:38;95193.88;;;31.17;33.95
20062;BME280;10191;42.710;23.310;2022-09-09T07:06:04;95188.00;;;31.39;34.31
20062;BME280;10191;42.710;23.310;2022-09-09T07:08:30;95183.31;;;31.77;33.96
20062;BME280;10191;42.710;23.310;2022-09-09T07:11:04;95188.34;;;32.00;33.71
20062;BME280;10191;42.710;23.310;2022-09-09T07:13:31;95181.72;;;32.11;33.97
20062;BME280;10191;42.710;23.310;2022-09-09T07:16:11;95177.09;;;32.56;33.77
20062;BME280;10191;42.710;23.310;2022-09-09T07:18:37;95179.72;;;32.78;34.15
20062;BME280;10191;42.710;23.310;2022-09-09T07:21:03;95185.91;;;33.25;33.36
20062;BME280;10191;42.710;23.310;2022-09-09T07:23:29;95181.66;;;33.32;32.88
20062;BME280;10191;42.710;23.310;2022-09-09T07:25:56;95189.50;;;33.13;33.14
20062;BME280;10191;42.710;23.310;2022-09-09T07:28:22;95183.06;;;32.82;32.97
20062;BME280;10191;42.710;23.310;2022-09-09T07:30:55;95185.59;;;33.10;33.19
20062;BME280;10191;42.710;23.310;2022-09-09T07:33:21;95187.63;;;33.34;32.48
20062;BME280;10191;42.710;23.310;2022-09-09T07:35:47;95166.50;;;32.88;32.94
20062;BME280;10191;42.710;23.310;2022-09-09T07:38:13;95172.28;;;33.26;33.00
20062;BME280;10191;42.710;23.310;2022-09-09T07:40:40;95180.66;;;33.79;32.44
20062;BME280;10191;42.710;23.310;2022-09-09T07:43:05;95177.03;;;34.24;32.40
20062;BME280;10191;42.710;23.310;2022-09-09T07:45:30;95180.66;;;34.69;32.10
20062;BME280;10191;42.710;23.310;2022-09-09T07:47:58;95180.53;;;34.75;31.72
20062;BME280;10191;42.710;23.310;2022-09-09T07:50:24;95176.53;;;34.51;32.11
20062;BME280;10191;42.710;23.310;2022-09-09T07:52:53;95188.56;;;34.24;31.99
20062;BME280;10191;42.710;23.310;2022-09-09T07:55:20;95180.88;;;34.71;32.23
20062;BME280;10191;42.710;23.310;2022-09-09T07:57:45;95186.03;;;35.38;31.88
20062;BME280;10191;42.710;23.310;2022-09-09T08:00:11;95186.09;;;35.92;31.67
20062;BME280;10191;42.710;23.310;2022-09-09T08:02:37;95180.94;;;36.40;31.47
20062;BME280;10191;42.710;23.310;2022-09-09T08:05:02;95180.66;;;36.51;31.12
20062;BME280;10191;42.710;23.310;2022-09-09T08:07:28;95189.84;;;36.42;31.15
20062;BME280;10191;42.710;23.310;2022-09-09T08:09:54;95188.09;;;35.97;31.00
20062;BME280;10191;42.710;23.310;2022-09-09T08:12:21;95176.47;;;35.56;31.05
20062;BME280;10191;42.710;23.310;2022-09-09T08:14:46;95181.91;;;35.80;30.98
20062;BME280;10191;42.710;23.310;2022-09-09T08:17:12;95181.44;;;35.56;30.87
20062;BME280;10191;42.710;23.310;2022-09-09T08:19:37;95182.69;;;35.81;30.82
20062;BME280;10191;42.710;23.310;2022-09-09T08:22:03;95175.66;;;36.10;30.80
20062;BME280;10191;42.710;23.310;2022-09-09T08:24:28;95180.25;;;36.05;30.87
20062;BME280;10191;42.710;23.310;2022-09-09T08:26:54;95182.53;;;36.20;30.78
20062;BME280;10191;42.710;23.310;2022-09-09T08:29:22;95175.59;;;36.44;30.62
20062;BME280;10191;42.710;23.310;2022-09-09T08:31:55;95183.91;;;36.75;30.31
20062;BME280;10191;42.710;23.310;2022-09-09T08:34:22;95180.06;;;36.73;30.35
20062;BME280;10191;42.710;23.310;2022-09-09T08:36:49;95179.41;;;36.39;30.43
20062;BME280;10191;42.710;23.310;2022-09-09T08:39:16;95169.25;;;36.04;30.63
20062;BME280;10191;42.710;23.310;2022-09-09T08:50:26;95166.75;;;34.94;31.40
20062;BME280;10191;42.710;23.310;2022-09-09T08:52:55;95160.19;;;35.19;31.06
20062;BME280;10191;42.710;23.310;2022-09-09T08:55:27;95159.50;;;35.40;30.90
20062;BME280;10191;42.710;23.310;2022-09-09T08:57:56;95165.97;;;35.87;30.49
20062;BME280;10191;42.710;23.310;2022-09-09T09:00:32;95150.06;;;36.35;30.06
20062;BME280;10191;42.710;23.310;2022-09-09T09:05:46;95164.44;;;37.04;29.76
20062;BME280;10191;42.710;23.310;2022-09-09T09:08:25;95172.19;;;37.09;29.52
20062;BME280;10191;42.710;23.310;2022-09-09T09:10:56;95156.31;;;36.46;29.98
20062;BME280;10191;42.710;23.310;2022-09-09T09:16:33;95161.72;;;36.01;30.21
20062;BME280;10191;42.710;23.310;2022-09-09T09:18:59;95158.09;;;35.20;30.63
20062;BME280;10191;42.710;23.310;2022-09-09T09:24:00;95158.31;;;35.22;30.22
20062;BME280;10191;42.710;23.310;2022-09-09T09:26:33;95154.88;;;35.10;30.48
20062;BME280;10191;42.710;23.310;2022-09-09T09:29:01;95154.69;;;34.82;30.68
20062;BME280;10191;42.710;23.310;2022-09-09T09:31:33;95154.19;;;34.39;30.49
20062;BME280;10191;42.710;23.310;2022-09-09T09:33:58;95162.53;;;33.98;30.31
20062;BME280;10191;42.710;23.310;2022-09-09T09:36:42;95153.50;;;33.75;30.71
20062;BME280;10191;42.710;23.310;2022-09-09T09:39:09;95154.09;;;33.87;30.49
20062;BME280;10191;42.710;23.310;2022-09-09T09:41:40;95140.81;;;34.68;29.49
20062;BME280;10191;42.710;23.310;2022-09-09T09:44:23;95138.88;;;34.18;30.29
20062;BME280;10191;42.710;23.310;2022-09-09T09:46:49;95143.00;;;33.91;30.95
20062;BME280;10191;42.710;23.310;2022-09-09T09:49:15;95136.53;;;34.03;30.87
20062;BME280;10191;42.710;23.310;2022-09-09T09:51:42;95122.66;;;34.15;31.04
20062;BME280;10191;42.710;23.310;2022-09-09T09:56:40;95109.25;;;34.17;31.21
20062;BME280;10191;42.710;23.310;2022-09-09T09:59:37;95125.25;;;35.10;29.93
20062;BME280;10191;42.710;23.310;2022-09-09T10:02:12;95118.72;;;35.64;28.81
20062;BME280;10191;42.710;23.310;2022-09-09T10:04:38;95122.88;;;35.55;28.68
20062;BME280;10191;42.710;23.310;2022-09-09T10:07:10;95123.09;;;35.57;28.51
20062;BME280;10191;42.710;23.310;2022-09-09T10:09:36;95140.16;;;35.68;28.07
20062;BME280;10191;42.710;23.310;2022-09-09T10:14:40;95137.84;;;35.67;27.79
20062;BME280;10191;42.710;23.310;2022-09-09T10:19:36;95125.63;;;35.27;28.19
20062;BME280;10191;42.710;23.310;2022-09-09T10:25:05;95140.78;;;34.94;28.28
20062;BME280;10191;42.710;23.310;2022-09-09T10:33:47;95136.19;;;33.25;31.26
20062;BME280;10191;42.710;23.310;2022-09-09T10:36:23;95139.53;;;33.29;30.70
20062;BME280;10191;42.710;23.310;2022-09-09T10:38:59;95150.38;;;33.23;31.06
20062;BME280;10191;42.710;23.310;2022-09-09T10:42:04;95151.91;;;33.24;31.17
20062;BME280;10191;42.710;23.310;2022-09-09T10:50:50;95141.59;;;33.47;31.19
20062;BME280;10191;42.710;23.310;2022-09-09T10:53:24;95153.22;;;33.60;31.19
20062;BME280;10191;42.710;23.310;2022-09-09T10:56:04;95146.81;;;33.67;31.14
20062;BME280;10191;42.710;23.310;2022-09-09T10:58:53;95151.63;;;33.77;30.81
20062;BME280;10191;42.710;23.310;2022-09-09T11:01:31;95143.19;;;33.79;30.93
20062;BME280;10191;42.710;23.310;2022-09-09T11:04:09;95140.94;;;33.72;30.93
20062;BME280;10191;42.710;23.310;2022-09-09T11:06:40;95132.31;;;33.72;30.65
20062;BME280;10191;42.710;23.310;2022-09-09T11:09:16;95142.19;;;33.77;31.00
20062;BME280;10191;42.710;23.310;2022-09-09T11:11:51;95143.06;;;33.72;30.72
20062;BME280;10191;42.710;23.310;2022-09-09T11:14:23;95131.31;;;33.70;30.70
20062;BME280;10191;42.710;23.310;2022-09-09T11:17:14;95128.19;;;33.68;30.65
20062;BME280;10191;42.710;23.310;2022-09-09T11:19:43;95137.78;;;33.76;30.56
20062;BME280;10191;42.710;23.310;2022-09-09T11:22:28;95125.72;;;33.91;30.50
20062;BME280;10191;42.710;23.310;2022-09-09T11:33:51;95107.94;;;34.44;30.61
20062;BME280;10191;42.710;23.310;2022-09-09T11:37:00;95094.31;;;34.45;30.24
20062;BME280;10191;42.710;23.310;2022-09-09T11:44:39;95061.13;;;34.38;30.51
20062;BME280;10191;42.710;23.310;2022-09-09T11:49:49;95043.03;;;33.99;30.26
20062;BME280;10191;42.710;23.310;2022-09-09T11:52:40;95045.56;;;33.89;30.82
20062;BME280;10191;42.710;23.310;2022-09-09T11:55:10;95036.38;;;33.91;30.50
20062;BME280;10191;42.710;23.310;2022-09-09T11:57:38;95054.84;;;34.27;30.73
20062;BME280;10191;42.710;23.310;2022-09-09T12:00:05;95056.66;;;34.77;30.30
20062;BME280;10191;42.710;23.310;2022-09-09T12:02:31;95060.06;;;35.35;30.16
20062;BME280;10191;42.710;23.310;2022-09-09T12:04:59;95056.84;;;36.00;30.00
20062;BME280;10191;42.710;23.310;2022-09-09T12:07:49;95057.81;;;36.52;29.66
20062;BME280;10191;42.710;23.310;2022-09-09T12:12:46;95051.81;;;37.36;29.34
20062;BME280;10191;42.710;23.310;2022-09-09T12:17:45;95045.22;;;37.28;29.25
20062;BME280;10191;42.710;23.310;2022-09-09T12:20:34;95041.63;;;37.00;29.29
20062;BME280;10191;42.710;23.310;2022-09-09T12:26:08;95041.44;;;36.98;29.46
20062;BME280;10191;42.710;23.310;2022-09-09T12:29:00;95032.56;;;37.03;29.60
20062;BME280;10191;42.710;23.310;2022-09-09T12:31:49;95034.47;;;36.93;29.55
20062;BME280;10191;42.710;23.310;2022-09-09T12:34:40;95022.34;;;37.02;29.58
20062;BME280;10191;42.710;23.310;2022-09-09T12:37:55;95013.34;;;36.77;29.43
20062;BME280;10191;42.710;23.310;2022-09-09T12:40:04;95022.25;;;36.44;29.69
20062;BME280;10191;42.710;23.310;2022-09-09T12:42:31;95014.50;;;36.11;29.75
20062;BME280;10191;42.710;23.310;2022-09-09T12:45:01;95012.84;;;35.74;29.63
20062;BME280;10191;42.710;23.310;2022-09-09T12:52:49;95018.50;;;36.64;28.26
20062;BME280;10191;42.710;23.310;2022-09-09T12:55:19;95009.63;;;37.20;28.05
20062;BME280;10191;42.710;23.310;2022-09-09T12:57:46;95013.25;;;37.79;27.42
20062;BME280;10191;42.710;23.310;2022-09-09T13:00:16;95006.63;;;37.64;26.84
20062;BME280;10191;42.710;23.310;2022-09-09T13:02:46;95008.94;;;37.42;27.01
20062;BME280;10191;42.710;23.310;2022-09-09T13:05:24;95007.66;;;36.57;27.54
20062;BME280;10191;42.710;23.310;2022-09-09T13:07:50;94985.59;;;34.87;29.35
20062;BME280;10191;42.710;23.310;2022-09-09T13:10:24;95000.56;;;34.38;30.54
20062;BME280;10191;42.710;23.310;2022-09-09T13:12:52;94999.03;;;34.37;30.75
20062;BME280;10191;42.710;23.310;2022-09-09T13:15:28;94986.13;;;34.65;30.42
20062;BME280;10191;42.710;23.310;2022-09-09T13:17:54;94992.34;;;35.85;29.13
20062;BME280;10191;42.710;23.310;2022-09-09T13:20:21;94981.31;;;36.04;28.57
20062;BME280;10191;42.710;23.310;2022-09-09T13:22:48;94964.84;;;35.22;29.73
20062;BME280;10191;42.710;23.310;2022-09-09T13:25:24;94967.59;;;34.94;30.38
20062;BME280;10191;42.710;23.310;2022-09-09T13:30:35;94966.31;;;34.82;30.71
20062;BME280;10191;42.710;23.310;2022-09-09T13:35:55;94958.88;;;34.39;31.13
20062;BME280;10191;42.710;23.310;2022-09-09T13:38:22;94962.78;;;34.16;31.08
20062;BME280;10191;42.710;23.310;2022-09-09T13:40:56;94960.25;;;33.99;31.44
20062;BME280;10191;42.710;23.310;2022-09-09T13:43:23;94951.16;;;33.95;30.93
20062;BME280;10191;42.710;23.310;2022-09-09T13:46:00;94949.50;;;33.87;31.38
20062;BME280;10191;42.710;23.310;2022-09-09T13:48:26;94949.94;;;33.91;31.33
20062;BME280;10191;42.710;23.310;2022-09-09T13:51:03;94947.81;;;34.30;31.16
20062;BME280;10191;42.710;23.310;2022-09-09T13:53:32;94941.44;;;34.45;30.64
20062;BME280;10191;42.710;23.310;2022-09-09T13:55:58;94947.78;;;34.57;30.95
20062;BME280;10191;42.710;23.310;2022-09-09T13:58:25;94942.09;;;34.85;30.56
20062;BME280;10191;42.710;23.310;2022-09-09T14:00:54;94948.63;;;35.19;30.55
20062;BME280;10191;42.710;23.310;2022-09-09T14:03:20;94928.47;;;35.47;30.12
20062;BME280;10191;42.710;23.310;2022-09-09T14:05:45;94947.16;;;36.31;28.94
20062;BME280;10191;42.710;23.310;2022-09-09T14:08:21;94949.34;;;36.96;28.16
20062;BME280;10191;42.710;23.310;2022-09-09T14:10:47;94947.91;;;37.56;27.32
20062;BME280;10191;42.710;23.310;2022-09-09T14:13:13;94940.16;;;37.96;27.19
20062;BME280;10191;42.710;23.310;2022-09-09T14:15:39;94936.81;;;38.14;26.94
20062;BME280;10191;42.710;23.310;2022-09-09T14:18:09;94941.41;;;38.33;26.72
20062;BME280;10191;42.710;23.310;2022-09-09T14:20:34;94944.34;;;38.17;26.91
20062;BME280;10191;42.710;23.310;2022-09-09T14:22:59;94931.19;;;38.16;26.87
20062;BME280;10191;42.710;23.310;2022-09-09T14:25:25;94935.47;;;39.02;26.34
20062;BME280;10191;42.710;23.310;2022-09-09T14:27:50;94936.34;;;39.94;25.35
20062;BME280;10191;42.710;23.310;2022-09-09T14:30:16;94936.34;;;38.88;26.02
20062;BME280;10191;42.710;23.310;2022-09-09T14:32:42;94931.84;;;37.70;27.42
20062;BME280;10191;42.710;23.310;2022-09-09T14:35:08;94929.50;;;37.91;27.84
20062;BME280;10191;42.710;23.310;2022-09-09T14:37:35;94935.34;;;37.83;27.90
20062;BME280;10191;42.710;23.310;2022-09-09T14:40:01;94927.16;;;37.14;28.46
20062;BME280;10191;42.710;23.310;2022-09-09T14:42:26;94923.38;;;36.25;28.96
20062;BME280;10191;42.710;23.310;2022-09-09T14:44:53;94936.34;;;36.31;28.89
20062;BME280;10191;42.710;23.310;2022-09-09T14:47:19;94938.75;;;37.14;28.60
20062;BME280;10191;42.710;23.310;2022-09-09T14:49:44;94939.19;;;36.67;28.65
20062;BME280;10191;42.710;23.310;2022-09-09T14:52:11;94931.44;;;35.83;29.26
20062;BME280;10191;42.710;23.310;2022-09-09T14:54:36;94926.34;;;35.27;29.68
20062;BME280;10191;42.710;23.310;2022-09-09T14:57:02;94935.25;;;35.50;29.59
20062;BME280;10191;42.710;23.310;2022-09-09T14:59:28;94932.34;;;36.42;29.01
20062;BME280;10191;42.710;23.310;2022-09-09T15:01:53;94941.53;;;36.68;28.64
20062;BME280;10191;42.710;23.310;2022-09-09T15:04:19;94942.00;;;36.01;28.89